Time;durP1;ratioP1;P1;durP2;ratioP2;P2;SDS_P1;SDS_P2;PMS_P1;PMS_P2;Temp;Humidity;BMP_temperature;BMP_pressure;BME280_temperature;BME280_humidity;BME280_pressure;Samples;Min_cycle;Max_cycle;Signal;HPM_P1;HPM_P2
2022/10/12 00:01:19;;;;;;;12.70;6.70;;;;;;;5.77;85.93;102472.81;5065798;28;20024;-80
2022/10/12 00:03:45;;;;;;;11.63;6.47;;;;;;;5.76;85.85;102476.34;5073530;28;20541;-79
2022/10/12 00:06:13;;;;;;;14.95;6.55;;;;;;;5.71;86.13;102465.09;5072110;28;20050;-80
2022/10/12 00:08:40;;;;;;;11.57;6.13;;;;;;;5.67;85.85;102468.75;5068022;28;20106;-80
2022/10/12 00:11:10;;;;;;;12.73;6.60;;;;;;;5.68;85.82;102473.06;5072909;28;20036;-80
2022/10/12 00:13:35;;;;;;;;;;;;;;;5.79;84.42;102467.50;5073818;28;20483;-80
2022/10/12 00:16:02;;;;;;;11.27;6.28;;;;;;;5.71;85.78;102463.34;5065611;28;19930;-80
2022/10/12 00:18:28;;;;;;;12.60;6.63;;;;;;;5.70;85.97;102460.75;5073478;28;20447;-80
2022/10/12 00:21:01;;;;;;;16.42;7.10;;;;;;;5.69;85.73;102467.75;5073213;28;20025;-80
2022/10/12 00:23:26;;;;;;;15.93;6.60;;;;;;;5.64;85.94;102467.03;5073074;28;20054;-80
2022/10/12 00:25:52;;;;;;;13.63;6.70;;;;;;;5.64;86.28;102467.03;5061420;28;20028;-79
2022/10/12 00:28:17;;;;;;;11.68;6.95;;;;;;;5.65;86.27;102467.94;5060847;28;20056;-80
2022/10/12 00:30:42;;;;;;;10.98;6.28;;;;;;;5.64;86.07;102466.19;5068818;28;20032;-80
2022/10/12 00:33:07;;;;;;;14.55;6.75;;;;;;;5.63;86.27;102470.59;5072017;28;20024;-80
2022/10/12 00:35:33;;;;;;;10.25;6.05;;;;;;;5.61;86.33;102468.91;5076026;28;20090;-80
2022/10/12 00:37:58;;;;;;;15.32;7.53;;;;;;;5.59;86.12;102466.31;5088407;28;20119;-80
2022/10/12 00:40:23;;;;;;;14.35;6.78;;;;;;;5.57;86.22;102463.72;5063019;28;20024;-80
2022/10/12 00:42:48;;;;;;;18.83;7.78;;;;;;;5.55;86.51;102468.19;5071727;28;20028;-80
2022/10/12 00:45:17;;;;;;;13.38;7.03;;;;;;;5.53;86.15;102462.09;5072685;28;20542;-80
2022/10/12 00:47:55;;;;;;;13.38;7.00;;;;;;;5.52;86.13;102464.78;5072510;28;20040;-80
2022/10/12 00:50:25;;;;;;;13.85;7.03;;;;;;;5.50;86.18;102461.34;5067973;28;20057;-80
2022/10/12 00:53:13;;;;;;;13.60;7.00;;;;;;;5.53;86.62;102467.38;5073670;28;20025;-79
2022/10/12 00:55:46;;;;;;;10.70;6.25;;;;;;;5.53;86.99;102472.66;5073233;28;20028;-80
2022/10/12 00:58:15;;;;;;;12.10;6.10;;;;;;;5.50;87.41;102463.97;5059801;28;20039;-80
2022/10/12 01:00:41;;;;;;;15.15;6.03;;;;;;;5.55;86.94;102469.97;5072593;28;20028;-80
2022/10/12 01:03:09;;;;;;;12.05;6.40;;;;;;;5.51;87.23;102470.94;5059151;28;20467;-80
2022/10/12 01:05:38;;;;;;;10.27;6.10;;;;;;;5.52;87.22;102465.63;5073115;28;20017;-79
2022/10/12 01:08:03;;;;;;;11.60;6.45;;;;;;;5.56;86.99;102466.41;5072463;28;20029;-80
2022/10/12 01:10:28;;;;;;;10.82;5.85;;;;;;;5.54;87.25;102462.97;5070378;28;20025;-80
2022/10/12 01:12:53;;;;;;;9.48;6.28;;;;;;;5.57;87.16;102460.22;5072363;28;20031;-79
2022/10/12 01:15:20;;;;;;;12.55;5.88;;;;;;;5.56;87.62;102454.09;5071444;28;20478;-80
2022/10/12 01:18:15;;;;;;;10.70;5.43;;;;;;;5.61;87.41;102455.72;5072468;28;20364;-80
2022/10/12 01:20:56;;;;;;;12.70;6.13;;;;;;;5.56;87.66;102451.47;5067966;28;20036;-80
2022/10/12 01:23:41;;;;;;;9.43;5.28;;;;;;;5.57;87.89;102440.00;5067873;28;20033;-80
2022/10/12 01:26:06;;;;;;;8.75;5.35;;;;;;;5.62;87.81;102441.66;5072857;28;20043;-80
2022/10/12 01:28:40;;;;;;;12.00;5.83;;;;;;;5.62;88.03;102434.59;5072796;28;20020;-80
2022/10/12 01:31:19;;;;;;;10.43;5.93;;;;;;;5.59;88.03;102429.41;5069085;28;20163;-80
2022/10/12 01:33:53;;;;;;;10.07;5.60;;;;;;;5.61;87.83;102435.50;5072217;28;20021;-80
2022/10/12 01:36:29;;;;;;;12.30;6.20;;;;;;;5.61;88.41;102430.22;5059132;28;20757;-80
2022/10/12 01:39:27;;;;;;;13.25;6.05;;;;;;;5.66;88.29;102433.63;5071608;28;20025;-80
2022/10/12 01:41:56;;;;;;;12.80;6.03;;;;;;;5.65;88.24;102434.50;5059527;28;20021;-79
2022/10/12 01:44:23;;;;;;;12.35;6.65;;;;;;;5.63;88.09;102430.19;5072224;28;20102;-80
2022/10/12 01:46:50;;;;;;;13.68;6.10;;;;;;;5.66;87.97;102424.81;5070763;28;20095;-80
2022/10/12 01:49:19;;;;;;;11.63;5.78;;;;;;;5.62;87.97;102416.16;5071979;28;20048;-80
2022/10/12 01:52:12;;;;;;;11.45;6.03;;;;;;;5.68;87.93;102423.88;5066941;28;20020;-80
2022/10/12 01:55:04;;;;;;;9.43;6.00;;;;;;;5.57;87.90;102412.78;5075162;28;20154;-80
2022/10/12 01:58:07;;;;;;;11.20;6.55;;;;;;;5.64;88.13;102424.88;5058709;28;20086;-80
2022/10/12 02:00:56;;;;;;;12.75;6.10;;;;;;;5.61;87.99;102419.69;5076090;28;20059;-80
2022/10/12 02:03:35;;;;;;;9.25;5.82;;;;;;;5.61;88.26;102413.56;5067705;28;20045;-80
2022/10/12 02:06:08;;;;;;;8.10;5.35;;;;;;;5.59;87.87;102415.38;5076111;28;20475;-80
2022/10/12 02:08:40;;;;;;;12.98;6.03;;;;;;;5.57;88.32;102412.78;5069015;28;20465;-80
2022/10/12 02:11:09;;;;;;;13.55;6.78;;;;;;;5.57;88.41;102413.66;5075144;28;20086;-80
2022/10/12 02:13:42;;;;;;;15.32;6.43;;;;;;;5.56;88.68;102405.78;5066491;28;20027;-80
2022/10/12 02:16:13;;;;;;;13.35;5.75;;;;;;;5.57;88.46;102403.09;5074815;28;20056;-80
2022/10/12 02:18:43;;;;;;;12.90;5.97;;;;;;;5.54;88.32;102403.19;5075642;28;20039;-80
2022/10/12 02:21:11;;;;;;;9.93;6.10;;;;;;;5.54;88.07;102407.59;5070956;28;20033;-80
2022/10/12 02:23:37;;;;;;;14.40;5.63;;;;;;;5.52;88.12;102393.63;5074256;28;20029;-80
2022/10/12 02:26:04;;;;;;;11.50;5.50;;;;;;;5.52;88.18;102397.09;5073583;28;20029;-80
2022/10/12 02:28:33;;;;;;;7.35;5.20;;;;;;;5.51;88.12;102398.03;5064710;28;20025;-80
2022/10/12 02:31:53;;;;;;;11.88;5.80;;;;;;;5.52;87.86;102397.09;5074470;28;20029;-80
2022/10/12 02:34:24;;;;;;;14.52;6.15;;;;;;;5.50;88.22;102401.56;5030511;28;20032;-80
2022/10/12 02:37:00;;;;;;;11.07;6.25;;;;;;;5.47;88.29;102401.66;5075352;28;20036;-80
2022/10/12 02:39:36;;;;;;;10.60;5.30;;;;;;;5.48;88.50;102405.16;5064583;28;20052;-80
2022/10/12 02:42:09;;;;;;;10.30;5.47;;;;;;;5.45;88.46;102395.59;5074715;28;20516;-80
2022/10/12 02:44:38;;;;;;;16.23;5.72;;;;;;;5.45;87.79;102392.94;5075095;28;20027;-80
2022/10/12 02:47:07;;;;;;;13.00;6.15;;;;;;;5.44;87.79;102391.22;5074130;28;20059;-80
2022/10/12 02:49:34;;;;;;;10.32;5.30;;;;;;;5.37;87.77;102390.53;5073252;28;20036;-80
2022/10/12 02:52:02;;;;;;;11.02;5.97;;;;;;;5.40;87.24;102391.38;5066709;28;20510;-80
2022/10/12 02:54:28;;;;;;;12.15;5.72;;;;;;;5.38;87.30;102391.41;5074811;28;20021;-80
2022/10/12 02:56:54;;;;;;;10.75;5.50;;;;;;;5.32;86.84;102379.25;5075217;28;20028;-80
2022/10/12 02:59:19;;;;;;;12.32;6.00;;;;;;;5.30;87.10;102383.72;5073793;28;20104;-80
2022/10/12 03:01:44;;;;;;;13.05;5.07;;;;;;;5.23;86.97;102370.78;5066505;28;20033;-80
2022/10/12 03:04:09;;;;;;;11.07;5.78;;;;;;;5.23;86.77;102381.31;5074824;28;20024;-80
2022/10/12 03:06:35;;;;;;;11.73;5.47;;;;;;;5.16;87.13;102378.88;5074833;28;20055;-80
2022/10/12 03:09:00;;;;;;;11.38;5.07;;;;;;;5.14;87.05;102379.81;5072729;28;20035;-80
2022/10/12 03:11:26;;;;;;;8.38;5.28;;;;;;;5.11;87.51;102372.00;5066564;28;20106;-80
2022/10/12 03:13:55;;;;;;;9.93;5.25;;;;;;;5.09;86.80;102374.66;5069804;28;20100;-80
2022/10/12 03:16:20;;;;;;;9.07;5.47;;;;;;;5.07;87.49;102378.28;5066793;28;20071;-80
2022/10/12 03:18:46;;;;;;;11.50;5.50;;;;;;;5.03;87.75;102376.63;5074440;28;20632;-80
2022/10/12 03:21:11;;;;;;;9.23;5.10;;;;;;;5.02;87.46;102373.13;5066454;28;20027;-80
2022/10/12 03:23:37;;;;;;;10.60;5.03;;;;;;;5.01;87.59;102374.03;5074603;28;20028;-79
2022/10/12 03:26:04;;;;;;;8.35;4.50;;;;;;;4.96;87.59;102371.56;5074562;28;20036;-80
2022/10/12 03:28:29;;;;;;;12.82;5.13;;;;;;;4.97;87.56;102373.25;5074141;28;20037;-80
2022/10/12 03:30:54;;;;;;;9.48;5.13;;;;;;;4.90;87.14;102365.59;5065736;28;20021;-80
2022/10/12 03:33:20;;;;;;;8.75;4.90;;;;;;;4.91;87.31;102372.56;5074097;28;20086;-80
2022/10/12 03:35:46;;;;;;;6.70;4.88;;;;;;;4.90;86.90;102376.13;5069753;28;20360;-80
2022/10/12 03:38:12;;;;;;;8.85;4.80;;;;;;;4.88;87.01;102370.00;5056689;28;20509;-80
2022/10/12 03:40:38;;;;;;;14.95;5.20;;;;;;;4.84;87.05;102366.63;5074217;28;20024;-80
2022/10/12 03:43:03;;;;;;;10.40;5.45;;;;;;;4.80;86.99;102360.56;5074094;28;20459;-80
2022/10/12 03:45:29;;;;;;;8.95;5.53;;;;;;;4.81;87.06;102372.84;5070471;28;20374;-80
2022/10/12 03:47:54;;;;;;;10.60;5.43;;;;;;;4.76;87.09;102372.09;5074024;28;20032;-80
2022/10/12 03:50:20;;;;;;;9.10;5.20;;;;;;;4.79;86.96;102372.00;5065671;28;20080;-80
2022/10/12 03:52:45;;;;;;;12.27;5.40;;;;;;;4.76;86.75;102360.69;5072611;28;20055;-80
2022/10/12 03:55:10;;;;;;;10.23;5.63;;;;;;;4.75;86.40;102361.63;5073684;28;20025;-80
2022/10/12 03:57:36;;;;;;;8.38;5.38;;;;;;;4.73;86.90;102366.03;5068464;28;20483;-80
2022/10/12 04:00:01;;;;;;;11.27;6.10;;;;;;;4.71;86.99;102357.34;5073757;28;20528;-80
2022/10/12 04:02:26;;;;;;;10.50;5.63;;;;;;;4.71;87.04;102359.97;5074147;28;20520;-80
2022/10/12 04:04:52;;;;;;;9.27;5.10;;;;;;;4.69;86.81;102354.75;5073197;28;20035;-80
2022/10/12 04:07:18;;;;;;;8.07;4.90;;;;;;;4.67;86.87;102350.44;5070321;28;20040;-80
2022/10/12 04:09:43;;;;;;;12.77;5.43;;;;;;;4.68;87.03;102354.78;5073609;28;20467;-80
2022/10/12 04:12:08;;;;;;;8.70;5.28;;;;;;;4.65;87.29;102355.75;5073398;28;20021;-80
2022/10/12 04:14:33;;;;;;;14.18;6.10;;;;;;;4.63;87.07;102355.78;5066197;28;20386;-80
2022/10/12 04:16:59;;;;;;;12.40;5.63;;;;;;;4.63;87.20;102362.81;5069487;28;20044;-80
2022/10/12 04:19:24;;;;;;;10.00;5.60;;;;;;;4.58;87.47;102354.16;5073562;28;20024;-80
2022/10/12 04:21:49;;;;;;;9.50;5.25;;;;;;;4.53;87.31;102350.78;5060679;28;20124;-80
2022/10/12 04:24:14;;;;;;;11.73;6.15;;;;;;;4.54;87.48;102361.28;5073541;28;20028;-80
2022/10/12 04:26:40;;;;;;;12.30;5.50;;;;;;;4.50;87.30;102362.28;5066591;28;20537;-80
2022/10/12 04:29:05;;;;;;;12.88;5.65;;;;;;;4.50;87.76;102357.03;5073271;28;20471;-80
2022/10/12 04:31:30;;;;;;;12.65;5.63;;;;;;;4.49;87.60;102359.69;5072824;28;20039;-80
2022/10/12 04:33:56;;;;;;;13.05;5.68;;;;;;;4.47;87.45;102356.25;5070214;28;20048;-80
2022/10/12 04:36:24;;;;;;;11.73;5.25;;;;;;;4.46;87.64;102350.09;5072550;28;20025;-80
2022/10/12 04:38:50;;;;;;;8.35;5.18;;;;;;;4.45;87.49;102346.63;5062164;28;20107;-80
2022/10/12 04:41:15;;;;;;;10.27;5.50;;;;;;;4.47;87.30;102356.25;5071596;28;20056;-80
2022/10/12 04:43:41;;;;;;;9.90;5.70;;;;;;;4.44;87.79;102362.44;5074317;28;20032;-80
2022/10/12 04:46:06;;;;;;;8.23;5.63;;;;;;;4.44;87.87;102359.81;5072698;28;20518;-80
2022/10/12 04:48:31;;;;;;;10.25;6.22;;;;;;;4.43;87.65;102361.59;5073152;28;20054;-80
2022/10/12 04:50:56;;;;;;;11.85;5.97;;;;;;;4.42;87.75;102365.09;5072984;28;20024;-80
2022/10/12 04:53:22;;;;;;;10.18;5.70;;;;;;;4.40;87.71;102356.41;5073015;28;20115;-80
2022/10/12 04:55:47;;;;;;;8.10;5.00;;;;;;;4.36;87.75;102361.78;5072700;28;20068;-80
2022/10/12 04:58:13;;;;;;;9.50;5.03;;;;;;;4.35;87.34;102358.28;5072823;28;20116;-80
2022/10/12 05:00:38;;;;;;;11.32;6.00;;;;;;;4.33;87.81;102361.84;5067238;28;20025;-80
2022/10/12 05:03:04;;;;;;;14.27;6.07;;;;;;;4.31;87.57;102361.88;5071596;28;20083;-80
2022/10/12 05:05:29;;;;;;;9.35;5.50;;;;;;;4.29;87.63;102366.31;5071606;28;20086;-80
2022/10/12 05:07:54;;;;;;;11.70;5.80;;;;;;;4.30;87.61;102370.69;5071284;28;20525;-79
2022/10/12 05:10:20;;;;;;;11.32;5.70;;;;;;;4.23;87.73;102359.47;5072601;28;20028;-80
2022/10/12 05:12:45;;;;;;;10.60;5.85;;;;;;;4.23;87.32;102361.22;5072638;28;20032;-80
2022/10/12 05:15:11;;;;;;;12.07;5.82;;;;;;;4.20;87.48;102354.28;5069352;28;20391;-79
2022/10/12 05:17:36;;;;;;;11.30;5.75;;;;;;;4.20;87.42;102350.81;5069933;28;20016;-80
2022/10/12 05:20:02;;;;;;;7.30;5.28;;;;;;;4.15;87.20;102345.66;5067376;28;20437;-80
2022/10/12 05:22:27;;;;;;;8.75;5.68;;;;;;;4.14;87.02;102341.28;5065037;28;20059;-80
2022/10/12 05:24:52;;;;;;;9.52;6.07;;;;;;;4.13;87.18;102339.59;5068011;28;20054;-80
2022/10/12 05:27:17;;;;;;;10.65;5.70;;;;;;;4.10;87.14;102334.38;5061560;28;20024;-80
2022/10/12 05:29:43;;;;;;;8.90;5.53;;;;;;;4.10;87.23;102339.66;5084045;28;20025;-79
2022/10/12 05:32:08;;;;;;;12.40;6.32;;;;;;;4.04;87.39;102327.50;5057593;28;20021;-80
2022/10/12 05:34:33;;;;;;;8.18;5.57;;;;;;;4.03;87.38;102331.06;5066695;28;20032;-80
2022/10/12 05:36:58;;;;;;;8.52;5.60;;;;;;;4.00;86.98;102335.53;5069200;28;20398;-79
2022/10/12 05:39:24;;;;;;;11.20;5.00;;;;;;;3.99;87.58;102333.78;5076577;28;20040;-80
2022/10/12 05:41:50;;;;;;;9.10;5.65;;;;;;;3.95;87.75;102330.38;5075045;28;20455;-80
2022/10/12 05:44:15;;;;;;;7.38;5.35;;;;;;;3.97;87.78;102340.88;5074746;28;20478;-80
2022/10/12 05:46:41;;;;;;;12.43;5.53;;;;;;;3.97;87.68;102332.97;5086794;28;20107;-79
2022/10/12 05:49:07;;;;;;;12.02;6.05;;;;;;;3.94;87.79;102331.28;5073907;28;20044;-80
2022/10/12 05:51:32;;;;;;;8.93;5.60;;;;;;;3.96;87.73;102332.09;5076808;28;20490;-80
2022/10/12 05:53:58;;;;;;;10.90;5.45;;;;;;;3.96;87.77;102329.47;5068633;28;20036;-80
2022/10/12 05:56:23;;;;;;;11.23;5.75;;;;;;;3.95;87.87;102332.16;5061939;28;20037;-81
2022/10/12 05:58:48;;;;;;;7.38;5.47;;;;;;;3.95;88.00;102335.63;5057524;28;20024;-81
2022/10/12 06:01:14;;;;;;;9.68;5.63;;;;;;;3.95;88.42;102333.00;5057517;28;20430;-81
2022/10/12 06:03:39;;;;;;;6.80;5.57;;;;;;;3.94;88.64;102343.56;5066599;28;20039;-81
2022/10/12 06:06:06;;;;;;;11.68;6.03;;;;;;;3.98;88.88;102337.31;5078673;28;20632;-81
2022/10/12 06:08:32;;;;;;;8.77;5.72;;;;;;;3.95;88.71;102335.63;5079527;28;20145;-81
2022/10/12 06:10:58;;;;;;;15.02;6.85;;;;;;;3.94;88.65;102340.94;5076023;28;20033;-81
2022/10/12 06:13:24;;;;;;;10.45;6.32;;;;;;;3.98;88.84;102335.56;5077015;28;20467;-81
2022/10/12 06:15:49;;;;;;;10.88;5.93;;;;;;;4.01;89.32;102331.97;5075557;28;20099;-81
2022/10/12 06:18:16;;;;;;;11.73;6.15;;;;;;;4.01;89.52;102337.25;5075315;28;20475;-82
2022/10/12 06:20:50;;;;;;;8.85;5.90;;;;;;;4.04;89.79;102334.53;5075492;28;21104;-81
2022/10/12 06:23:15;;;;;;;11.13;6.05;;;;;;;4.07;89.79;102337.09;5076065;28;20032;-81
2022/10/12 06:25:41;;;;;;;12.63;6.38;;;;;;;4.07;90.03;102335.31;5075843;28;20123;-81
2022/10/12 06:28:06;;;;;;;10.45;6.40;;;;;;;4.12;90.12;102329.09;5070813;28;20029;-81
2022/10/12 06:30:32;;;;;;;9.50;6.13;;;;;;;4.14;90.20;102333.41;5058694;28;20108;-81
2022/10/12 06:32:58;;;;;;;11.18;6.68;;;;;;;4.17;90.23;102333.31;5074922;28;20028;-81
2022/10/12 06:35:23;;;;;;;11.80;6.25;;;;;;;4.19;90.08;102334.13;5065932;28;20120;-81
2022/10/12 06:37:50;;;;;;;9.48;6.10;;;;;;;4.20;90.39;102325.34;5055302;28;20039;-81
2022/10/12 06:40:18;;;;;;;10.25;6.10;;;;;;;4.23;90.68;102322.66;5055787;28;20064;-81
2022/10/12 06:42:44;;;;;;;10.97;6.63;;;;;;;4.29;90.66;102331.28;5055285;28;20029;-81
2022/10/12 06:45:10;;;;;;;10.43;6.28;;;;;;;4.33;91.13;102325.91;5055453;28;20021;-80
2022/10/12 06:47:35;;;;;;;11.43;6.13;;;;;;;4.35;91.23;102323.25;5055644;28;20491;-81
2022/10/12 06:50:00;;;;;;;11.90;6.82;;;;;;;4.43;91.45;102323.91;5057536;28;20487;-81
2022/10/12 06:52:26;;;;;;;14.45;7.47;;;;;;;4.48;91.90;102326.38;5075462;28;20078;-81
2022/10/12 06:54:51;;;;;;;15.77;7.10;;;;;;;4.49;91.66;102328.97;5080874;28;20037;-81
2022/10/12 06:57:16;;;;;;;15.25;6.75;;;;;;;4.58;91.95;102328.72;5088518;28;20038;-80
2022/10/12 06:59:41;;;;;;;14.05;7.20;;;;;;;4.64;92.00;102330.31;5083677;28;20029;-81
2022/10/12 07:02:09;;;;;;;16.65;6.60;;;;;;;4.64;92.10;102335.59;5088177;28;20078;-80
2022/10/12 07:04:35;;;;;;;14.95;7.70;;;;;;;4.73;92.32;102337.09;5088971;28;20039;-81
2022/10/12 07:07:00;;;;;;;20.17;8.00;;;;;;;4.73;92.56;102337.97;5087306;28;20041;-81
2022/10/12 07:09:25;;;;;;;16.67;8.10;;;;;;;4.80;92.29;102336.03;5081526;28;20028;-81
2022/10/12 07:11:51;;;;;;;14.25;8.45;;;;;;;4.84;92.18;102339.44;5085083;28;20032;-81
2022/10/12 07:14:16;;;;;;;11.13;7.05;;;;;;;4.86;92.40;102333.19;5081944;28;20025;-81
2022/10/12 07:16:41;;;;;;;13.43;7.38;;;;;;;4.93;92.25;102333.88;5085027;28;20060;-81
2022/10/12 07:19:07;;;;;;;14.50;8.05;;;;;;;4.95;92.30;102330.31;5075027;28;20055;-81
2022/10/12 07:21:32;;;;;;;15.45;8.15;;;;;;;5.01;92.58;102329.25;5085955;28;20025;-81
2022/10/12 07:23:57;;;;;;;14.35;7.53;;;;;;;5.05;92.15;102324.78;5085684;28;20022;-81
2022/10/12 07:26:22;;;;;;;21.52;9.75;;;;;;;5.08;92.48;102322.94;5077842;28;20027;-81
2022/10/12 07:28:48;;;;;;;18.83;9.85;;;;;;;5.11;92.98;102322.84;5080002;28;20059;-80
2022/10/12 07:31:13;;;;;;;17.80;9.60;;;;;;;5.17;93.18;102317.38;5083516;28;20032;-81
2022/10/12 07:33:38;;;;;;;20.13;11.05;;;;;;;5.22;93.80;102319.00;5083017;28;20130;-81
2022/10/12 07:36:04;;;;;;;22.25;13.13;;;;;;;5.28;94.35;102322.31;5082605;28;20421;-80
2022/10/12 07:38:30;;;;;;;16.27;10.18;;;;;;;5.31;93.85;102323.97;5075333;28;20074;-80
2022/10/12 07:41:00;;;;;;;20.58;9.98;;;;;;;5.34;93.97;102324.75;5080785;28;20033;-79
2022/10/12 07:43:26;;;;;;;23.02;11.77;;;;;;;5.38;94.18;102323.75;5075066;28;20032;-80
2022/10/12 07:45:51;;;;;;;20.92;11.50;;;;;;;5.45;94.58;102326.22;5077437;28;20025;-81
2022/10/12 07:48:18;;;;;;;21.05;11.80;;;;;;;5.50;94.64;102324.28;5079264;28;20047;-80
2022/10/12 07:50:43;;;;;;;24.15;11.88;;;;;;;5.64;95.48;102327.34;5074858;28;20032;-80
2022/10/12 07:53:09;;;;;;;22.60;13.50;;;;;;;5.73;95.37;102332.31;5074111;28;20072;-79
2022/10/12 07:55:34;;;;;;;22.60;14.20;;;;;;;5.87;95.78;102333.66;5074318;28;20032;-79
2022/10/12 07:58:00;;;;;;;25.48;14.52;;;;;;;5.99;95.61;102333.25;5074193;28;20463;-80
2022/10/12 08:00:26;;;;;;;25.98;13.68;;;;;;;6.15;95.57;102338.03;5074301;28;20028;-80
2022/10/12 08:02:51;;;;;;;23.17;14.48;;;;;;;6.27;95.68;102329.69;5065571;28;20029;-80
2022/10/12 08:05:20;;;;;;;31.55;15.02;;;;;;;6.37;95.43;102335.50;5054211;28;20056;-80
2022/10/12 08:07:45;;;;;;;32.37;15.77;;;;;;;6.55;95.93;102341.94;5058741;28;20029;-80
2022/10/12 08:10:19;;;;;;;26.38;16.55;;;;;;;6.71;95.70;102340.47;5088706;27;20404;-47
2022/10/12 08:12:45;;;;;;;29.75;16.80;;;;;;;6.88;95.78;102339.84;5086357;28;20405;-47
2022/10/12 08:15:11;;;;;;;32.35;18.05;;;;;;;7.09;95.67;102335.50;5081103;28;20382;-44
2022/10/12 08:17:37;;;;;;;28.17;18.55;;;;;;;7.30;95.65;102333.00;5084705;28;20031;-45
2022/10/12 08:20:03;;;;;;;31.05;19.30;;;;;;;7.48;95.28;102336.69;5085905;28;20032;-46
2022/10/12 08:22:28;;;;;;;25.30;17.73;;;;;;;7.72;94.62;102327.75;5069920;28;20025;-45
2022/10/12 08:24:53;;;;;;;29.30;18.90;;;;;;;7.91;93.98;102332.28;5070190;28;20035;-45
2022/10/12 08:27:19;;;;;;;29.50;18.85;;;;;;;8.16;92.94;102321.56;5069424;28;20029;-46
2022/10/12 08:29:45;;;;;;;30.75;16.92;;;;;;;8.32;91.96;102327.03;5080722;28;20029;-45
2022/10/12 08:32:11;;;;;;;26.33;16.60;;;;;;;8.50;91.11;102317.47;5081027;28;20035;-44
2022/10/12 08:34:36;;;;;;;26.02;15.80;;;;;;;8.69;90.34;102313.06;5079983;28;20024;-46
2022/10/12 08:37:01;;;;;;;25.23;15.60;;;;;;;8.96;89.53;102311.84;5087203;28;20036;-45
2022/10/12 08:39:26;;;;;;;27.70;15.02;;;;;;;9.15;88.73;102304.78;5085646;28;20375;-45
2022/10/12 08:42:24;;;;;;;27.38;15.10;;;;;;;9.37;88.24;102311.72;5080930;28;20035;-46
2022/10/12 08:45:17;;;;;;;25.55;15.15;;;;;;;9.65;86.26;102323.66;5070318;28;20039;-45
2022/10/12 08:47:50;;;;;;;28.60;15.18;;;;;;;9.82;85.71;102311.28;5067211;28;20089;-44
2022/10/12 08:51:05;;;;;;;23.13;13.93;;;;;;;10.02;85.34;102319.16;5069674;28;20029;-45
2022/10/12 08:53:54;;;;;;;28.55;14.63;;;;;;;10.19;84.32;102312.06;5055973;28;20079;-46
2022/10/12 08:56:20;;;;;;;28.33;14.20;;;;;;;10.30;82.12;102307.97;5069236;28;20041;-46
2022/10/12 08:58:47;;;;;;;21.45;13.52;;;;;;;10.41;81.68;102320.72;5065872;28;20025;-46
2022/10/12 09:01:18;;;;;;;29.48;13.43;;;;;;;10.52;81.14;102326.31;5069336;28;20043;-45
2022/10/12 09:03:59;;;;;;;23.02;12.95;;;;;;;10.58;80.51;102328.66;5069332;28;20016;-45
2022/10/12 09:06:32;;;;;;;23.45;13.50;;;;;;;10.69;79.83;102330.75;5068935;28;20086;-45
2022/10/12 09:09:20;;;;;;;22.17;12.80;;;;;;;10.83;79.61;102325.56;5066951;28;20521;-45
2022/10/12 09:12:19;;;;;;;24.63;13.13;;;;;;;11.01;79.35;102330.84;5078204;28;20024;-45
2022/10/12 09:14:46;;;;;;;26.27;14.43;;;;;;;11.16;76.75;102339.75;5076177;28;20021;-45
2022/10/12 09:17:37;;;;;;;24.15;13.70;;;;;;;11.33;77.78;102341.50;5070306;28;20109;-46
2022/10/12 09:20:14;;;;;;;25.33;12.85;;;;;;;11.50;76.47;102337.88;5081817;28;20028;-45
2022/10/12 09:22:44;;;;;;;23.65;13.32;;;;;;;11.70;76.61;102334.91;5068195;28;20037;-44
2022/10/12 09:25:15;;;;;;;22.27;13.68;;;;;;;11.91;76.13;102337.31;5061553;28;20033;-46
2022/10/12 09:27:43;;;;;;;22.27;11.77;;;;;;;12.19;74.09;102323.22;5070564;28;20077;-45
2022/10/12 09:30:12;;;;;;;23.15;13.77;;;;;;;12.36;73.75;102324.91;5051726;28;20486;-45
2022/10/12 09:33:01;;;;;;;21.17;12.40;;;;;;;12.61;73.68;102326.91;5053480;28;20027;-45
2022/10/12 09:35:26;;;;;;;22.55;12.52;;;;;;;12.81;71.93;102327.50;5060602;28;20029;-45
2022/10/12 09:37:52;;;;;;;20.23;12.02;;;;;;;13.00;71.83;102327.19;5066368;28;20032;-45
2022/10/12 09:40:25;;;;;;;23.02;12.27;;;;;;;13.12;69.61;102318.38;5062445;28;20031;-45
2022/10/12 09:42:53;;;;;;;21.80;11.95;;;;;;;13.26;67.97;102326.38;5069253;28;20043;-46
2022/10/12 09:45:20;;;;;;;25.25;11.68;;;;;;;13.46;69.42;102324.28;5064518;28;20398;-45
2022/10/12 09:48:18;;;;;;;25.33;12.45;;;;;;;13.66;70.66;102322.97;5066861;28;20030;-45
2022/10/12 09:50:56;;;;;;;26.60;11.55;;;;;;;13.89;68.19;102316.09;5065239;28;20082;-46
2022/10/12 09:53:31;;;;;;;21.30;11.70;;;;;;;14.11;67.21;102314.63;5058685;28;20056;-45
2022/10/12 09:56:04;;;;;;;20.98;11.10;;;;;;;14.32;65.22;102312.28;5068470;28;20421;-45
2022/10/12 09:58:32;;;;;;;23.40;11.43;;;;;;;14.38;63.93;102309.19;5068746;28;20028;-45
2022/10/12 10:01:20;;;;;;;22.05;11.68;;;;;;;14.59;67.26;102304.22;5067777;28;20032;-46
2022/10/12 10:04:06;;;;;;;22.38;11.20;;;;;;;14.71;62.58;102292.63;5057797;28;20567;-45
2022/10/12 10:06:32;;;;;;;22.40;11.32;;;;;;;14.85;62.89;102291.63;5049141;28;20112;-47
2022/10/12 10:08:57;;;;;;;17.45;10.35;;;;;;;14.92;60.97;102292.06;5059783;28;20135;-45
2022/10/12 10:11:26;;;;;;;21.50;10.30;;;;;;;15.15;60.44;102280.56;5057632;28;20055;-46
2022/10/12 10:13:53;;;;;;;26.42;9.35;;;;;;;15.33;59.89;102286.34;5053895;28;20035;-46
2022/10/12 10:16:22;;;;;;;18.38;8.35;;;;;;;15.32;59.32;102289.16;5055058;28;20025;-47
2022/10/12 10:18:53;;;;;;;18.33;9.02;;;;;;;15.50;60.75;102285.13;5063517;28;20032;-47
2022/10/12 10:21:30;;;;;;;16.05;7.75;;;;;;;15.65;59.93;102287.59;5068420;28;20099;-48
2022/10/12 10:24:00;;;;;;;15.20;7.78;;;;;;;15.86;57.83;102293.22;5049437;28;20056;-47
2022/10/12 10:26:28;;;;;;;13.43;7.72;;;;;;;15.98;59.15;102292.25;5052808;28;20059;-46
2022/10/12 10:29:20;;;;;;;17.55;6.82;;;;;;;16.27;60.30;102286.50;5053995;28;20055;-46
2022/10/12 10:31:46;;;;;;;17.33;7.57;;;;;;;16.32;55.90;102283.44;5050856;28;20037;-48
2022/10/12 10:34:20;;;;;;;16.52;6.45;;;;;;;16.38;57.29;102288.31;5052623;28;20135;-48
2022/10/12 10:36:54;;;;;;;16.50;5.95;;;;;;;16.43;56.70;102284.28;5050064;28;20029;-46
2022/10/12 10:39:26;;;;;;;14.23;6.38;;;;;;;16.53;55.46;102281.75;5052386;28;20098;-46
2022/10/12 10:41:54;;;;;;;18.58;6.40;;;;;;;16.74;55.14;102281.88;5051300;28;20060;-48
2022/10/12 10:44:26;;;;;;;20.45;7.00;;;;;;;16.88;54.52;102272.75;5044696;28;20055;-46
2022/10/12 10:46:59;;;;;;;17.33;5.95;;;;;;;16.94;53.77;102266.03;5049078;28;20029;-47
2022/10/12 10:49:35;;;;;;;15.02;5.90;;;;;;;16.95;55.02;102273.09;5045404;28;20116;-45
2022/10/12 10:52:02;;;;;;;13.93;5.65;;;;;;;16.99;52.97;102271.88;5050402;28;20120;-45
2022/10/12 10:54:30;;;;;;;12.13;5.47;;;;;;;17.13;52.17;102270.75;5051778;28;20041;-46
2022/10/12 10:57:12;;;;;;;12.65;5.10;;;;;;;17.28;54.08;102266.78;5051340;28;20029;-45
2022/10/12 10:59:47;;;;;;;13.15;5.18;;;;;;;17.34;53.12;102255.56;5050113;28;20551;-46
2022/10/12 11:02:25;;;;;;;14.07;5.72;;;;;;;17.42;51.60;102254.94;5050642;28;20136;-46
2022/10/12 11:04:58;;;;;;;16.63;6.40;;;;;;;17.50;51.10;102249.78;5048020;28;20049;-46
2022/10/12 11:07:32;;;;;;;10.57;4.80;;;;;;;17.71;52.46;102249.78;5052154;28;20040;-48
2022/10/12 11:10:01;;;;;;;13.25;6.80;;;;;;;17.91;50.80;102253.47;5048678;28;20142;-46
2022/10/12 11:12:30;;;;;;;13.32;5.57;;;;;;;18.09;50.38;102247.53;5052976;28;20163;-47
2022/10/12 11:15:05;;;;;;;12.88;5.45;;;;;;;18.27;51.18;102234.31;5044052;28;20463;-47
2022/10/12 11:17:33;;;;;;;14.35;5.45;;;;;;;18.22;48.89;102244.59;5049239;28;20078;-48
2022/10/12 11:20:24;;;;;;;15.20;5.93;;;;;;;18.35;51.38;102233.63;5051353;28;20045;-47
2022/10/12 11:22:53;;;;;;;15.50;5.97;;;;;;;18.25;48.41;102231.75;5051302;28;20394;-45
2022/10/12 11:25:32;;;;;;;14.73;5.97;;;;;;;18.24;49.31;102223.81;5059274;28;20033;-46
2022/10/12 11:27:58;;;;;;;11.82;5.32;;;;;;;18.27;48.09;102219.03;5057792;28;20178;-47
2022/10/12 11:30:27;;;;;;;13.35;5.65;;;;;;;18.37;48.83;102208.31;5058766;28;20559;-46
2022/10/12 11:33:04;;;;;;;14.52;5.40;;;;;;;18.38;49.77;102206.47;5058232;28;20165;-46
2022/10/12 11:35:40;;;;;;;15.05;5.40;;;;;;;18.29;47.71;102211.66;5054182;28;20529;-47